Terminal Aerodrome Forecast
Issued by NWS

Home | Current Version | Previous Version | Text Only | Print | Product List | Glossary On
Versions: 1 2 3 4 5 6 7 8 9 10 11 12 13 14 15 16 17 18
443
FTUS41 KBTV 141318 AAA
TAFMPV
TAF AMD
KMPV 141318Z 1413/1512 31012KT 6SM HZ SCT008
      TEMPO 1413/1416 3SM HZ BKN008
     FM141600 32010G21KT P6SM SCT150
     FM142200 31006KT P6SM FEW250
     FM150000 VRB03KT P6SM FEW200=

USA.gov is the U.S. government's official web portal to all federal, state and local government web resources and services.